In Rescue
 
Open Full Screen Window  High Contrast Mode
Wind Gusting 00 knots
08
May 25, 2022 9:12 PM EDT
Present Weather: Light Rain
Weather Information
Wind Direction
  140 °
Wind Speed
  08 kt (9 mph)
Wind Gust
  00 kt (0 mph)
Altimeter
29.85 in
Visibility
10 SM
Temperature
16° C
61° F
Dewpoint
15° C
59° F
Humidity
94%
Sky Condition
Overcast @ 6,000 ft
Broken @ 2,900 ft
Scattered @ 1,200 ft
MVFR

METAR KFKS 260112Z AUTO 14008KT 10SM -RA SCT012 BKN029 OVC060 16/15 A2985 RMK AO2 T01600146

FAA Disclaimer: The data displayed is for advisory purposes only and is not to be used for flight planning or operations.